createdAt,value
2022-09-12T00:03:50.097Z,94.0
2022-09-12T00:08:56.310Z,94.0
2022-09-12T00:14:02.522Z,94.0
2022-09-12T00:19:08.731Z,94.0
2022-09-12T00:24:14.937Z,94.0
2022-09-12T00:29:21.147Z,94.0
2022-09-12T00:34:27.358Z,94.5
2022-09-12T00:39:33.566Z,94.5
2022-09-12T00:44:39.779Z,94.5
2022-09-12T00:49:45.984Z,94.5
2022-09-12T00:54:52.196Z,94.5
2022-09-12T00:59:58.408Z,94.5
2022-09-12T01:05:04.614Z,94.5
2022-09-12T01:10:10.826Z,94.5
2022-09-12T01:15:17.032Z,95.0
2022-09-12T01:20:23.237Z,95.0
2022-09-12T01:25:28.470Z,95.0
2022-09-12T01:30:34.686Z,95.5
2022-09-12T01:35:39.922Z,95.5
2022-09-12T01:40:46.131Z,95.5
2022-09-12T01:45:52.361Z,95.5
2022-09-12T01:50:58.547Z,95.5
2022-09-12T01:56:04.760Z,95.5
2022-09-12T02:01:11.054Z,95.5
2022-09-12T02:06:17.172Z,96.0
2022-09-12T02:11:23.378Z,96.0
2022-09-12T02:16:29.641Z,96.0
2022-09-12T02:21:35.797Z,96.0
2022-09-12T02:26:42.011Z,96.0
2022-09-12T02:31:48.216Z,96.0
2022-09-12T02:36:54.424Z,96.0
2022-09-12T02:42:00.630Z,96.0
2022-09-12T02:47:06.838Z,96.0
2022-09-12T02:52:13.053Z,96.0
2022-09-12T02:57:22.647Z,96.0
2022-09-12T03:02:25.602Z,96.0
2022-09-12T03:07:31.676Z,96.0
2022-09-12T03:12:37.882Z,96.5
2022-09-12T03:17:44.092Z,96.5
2022-09-12T03:27:55.532Z,96.5
2022-09-12T03:33:00.771Z,96.5
2022-09-12T03:38:06.969Z,96.5
2022-09-12T03:43:12.209Z,96.5
2022-09-12T03:48:18.423Z,96.5
2022-09-12T03:53:24.631Z,96.5
2022-09-12T03:58:30.835Z,96.5
2022-09-12T04:03:37.047Z,97.0
2022-09-12T04:08:43.319Z,97.0
2022-09-12T04:13:49.460Z,97.0
2022-09-12T04:18:55.669Z,97.0
2022-09-12T04:24:00.894Z,97.0
2022-09-12T04:29:07.101Z,97.0
2022-09-12T04:34:13.314Z,97.0
2022-09-12T04:39:19.517Z,97.0
2022-09-12T04:44:25.735Z,97.0
2022-09-12T04:49:31.936Z,97.0
2022-09-12T04:54:38.143Z,97.0
2022-09-12T04:59:44.355Z,97.5
2022-09-12T05:04:50.559Z,97.5
2022-09-12T05:09:56.774Z,97.5
2022-09-12T05:15:02.983Z,97.5
2022-09-12T05:20:09.202Z,97.5
2022-09-12T05:25:15.400Z,97.5
2022-09-12T05:30:20.637Z,97.5
2022-09-12T05:35:26.841Z,98.0
2022-09-12T05:40:33.046Z,98.0
2022-09-12T05:45:38.345Z,98.0
2022-09-12T05:50:44.498Z,98.0
2022-09-12T05:55:50.698Z,98.0
2022-09-12T06:00:56.910Z,98.0
2022-09-12T06:06:03.146Z,98.5
2022-09-12T06:11:09.327Z,98.5
2022-09-12T06:16:15.563Z,98.5
2022-09-12T06:21:21.751Z,98.5
2022-09-12T06:26:27.957Z,98.5
2022-09-12T06:31:34.190Z,98.5
2022-09-12T06:36:40.380Z,98.5
2022-09-12T06:41:46.595Z,98.5
2022-09-12T06:46:52.815Z,98.5
2022-09-12T06:51:59.029Z,98.5
2022-09-12T06:57:05.244Z,98.5
2022-09-12T07:02:11.521Z,98.5
2022-09-12T07:07:17.672Z,98.5
2022-09-12T07:12:23.910Z,98.5
2022-09-12T07:17:30.098Z,98.5
2022-09-12T07:22:36.322Z,98.5
2022-09-12T07:27:42.534Z,98.5
2022-09-12T07:32:47.772Z,98.5
2022-09-12T07:37:54.012Z,98.5
2022-09-12T07:42:59.231Z,98.5
2022-09-12T07:48:05.432Z,98.5
2022-09-12T07:53:11.649Z,98.5
2022-09-12T07:58:17.849Z,98.5
2022-09-12T08:03:24.057Z,98.5
2022-09-12T08:08:30.267Z,98.5
2022-09-12T08:13:36.476Z,98.5
2022-09-12T08:18:42.689Z,98.0
2022-09-12T08:23:48.888Z,97.5
2022-09-12T08:28:55.100Z,97.0
2022-09-12T08:34:01.311Z,97.0
2022-09-12T08:39:07.516Z,96.5
2022-09-12T08:44:13.729Z,95.5
2022-09-12T08:49:19.934Z,95.0
2022-09-12T08:54:26.160Z,94.5
2022-09-12T08:59:32.352Z,94.0
2022-09-12T09:04:38.574Z,93.5
2022-09-12T09:09:44.790Z,93.5
2022-09-12T09:14:50.977Z,93.0
2022-09-12T09:19:57.193Z,92.5
2022-09-12T09:25:03.395Z,92.5
2022-09-12T09:30:08.636Z,92.0
2022-09-12T09:35:14.849Z,91.5
2022-09-12T09:40:20.149Z,91.0
2022-09-12T09:45:26.290Z,90.0
2022-09-12T09:50:32.498Z,90.0
2022-09-12T09:55:38.721Z,89.0
2022-09-12T10:00:44.914Z,88.5
2022-09-12T10:05:51.122Z,87.5
2022-09-12T10:10:57.345Z,86.5
2022-09-12T10:16:03.595Z,86.0
2022-09-12T10:21:09.753Z,85.5
2022-09-12T10:26:15.969Z,85.0
2022-09-12T10:31:22.190Z,84.0
2022-09-12T10:36:28.381Z,83.5
2022-09-12T10:41:34.593Z,83.0
2022-09-12T10:46:40.799Z,82.5
2022-09-12T10:51:47.005Z,82.0
2022-09-12T10:56:53.218Z,81.5
2022-09-12T11:01:59.430Z,80.5
2022-09-12T11:07:05.636Z,79.5
2022-09-12T11:12:11.848Z,80.0
2022-09-12T11:17:18.073Z,75.5
2022-09-12T11:22:26.715Z,75.5
2022-09-12T11:27:29.498Z,76.0
2022-09-12T11:32:35.710Z,74.5
2022-09-12T11:37:41.921Z,75.0
2022-09-12T11:42:47.161Z,73.0
2022-09-12T11:47:53.363Z,72.0
2022-09-12T11:52:59.580Z,72.5
2022-09-12T11:58:05.787Z,72.0
2022-09-12T12:03:12.040Z,72.5
2022-09-12T12:08:18.210Z,71.5
2022-09-12T12:13:24.418Z,72.0
2022-09-12T12:18:30.622Z,71.0
2022-09-12T12:23:36.839Z,71.0
2022-09-12T12:28:43.054Z,69.5
2022-09-12T12:33:49.261Z,69.5
2022-09-12T12:38:55.478Z,67.0
2022-09-12T12:44:01.691Z,68.5
2022-09-12T12:49:07.904Z,69.0
2022-09-12T12:54:14.118Z,68.0
2022-09-12T12:59:20.328Z,67.5
2022-09-12T13:04:26.541Z,66.0
2022-09-12T13:09:32.758Z,65.5
2022-09-12T13:24:51.391Z,66.0
2022-09-12T13:29:58.447Z,65.5
2022-09-12T13:35:03.824Z,65.0
2022-09-12T13:50:21.738Z,64.0
2022-09-12T14:00:39.080Z,64.0
2022-09-12T14:05:44.319Z,64.5
2022-09-12T14:16:09.019Z,64.5
2022-09-12T14:21:14.229Z,64.0
2022-09-12T14:26:26.564Z,63.5
2022-09-12T14:31:45.360Z,63.5
2022-09-12T14:36:51.235Z,64.5
2022-09-12T14:42:03.578Z,64.0
2022-09-12T14:47:15.895Z,65.0
2022-09-12T14:52:28.233Z,65.0
2022-09-12T15:02:39.695Z,64.0
2022-09-12T15:07:44.936Z,64.0
2022-09-12T15:13:03.399Z,64.0
2022-09-12T15:18:21.842Z,64.0
2022-09-12T15:23:40.342Z,64.5
2022-09-12T15:28:58.739Z,65.0
2022-09-12T15:34:03.979Z,65.5
2022-09-12T15:39:16.317Z,66.0
2022-09-12T15:44:28.645Z,65.5
2022-09-12T15:49:40.975Z,66.0
2022-09-12T15:54:53.315Z,66.5
2022-09-12T16:00:05.686Z,66.5
2022-09-12T16:10:23.226Z,66.0
2022-09-12T16:15:28.470Z,66.0
2022-09-12T16:20:46.925Z,66.5
2022-09-12T16:26:05.380Z,66.0
2022-09-12T16:31:23.907Z,66.0
2022-09-12T16:36:42.282Z,66.5
2022-09-12T16:41:47.524Z,66.0
2022-09-12T16:46:59.858Z,65.5
2022-09-12T16:52:12.191Z,65.0
2022-09-12T16:57:24.533Z,65.0
2022-09-12T17:02:36.918Z,65.5
2022-09-12T17:07:49.180Z,65.5
2022-09-12T17:13:00.541Z,66.0
2022-09-12T17:18:06.748Z,66.0
2022-09-12T17:23:12.960Z,66.5
2022-09-12T17:28:19.164Z,67.0
2022-09-12T17:33:25.376Z,67.5
2022-09-12T17:38:31.584Z,68.0
2022-09-12T17:43:38.046Z,68.0
2022-09-12T17:48:44.031Z,69.0
2022-09-12T17:53:50.213Z,69.5
2022-09-12T17:58:56.417Z,70.0
2022-09-12T18:04:02.631Z,70.5
2022-09-12T18:09:08.853Z,71.5
2022-09-12T18:14:15.056Z,72.0
2022-09-12T18:19:21.259Z,72.5
2022-09-12T18:24:27.463Z,73.0
2022-09-12T18:29:33.680Z,74.0
2022-09-12T18:34:39.884Z,74.5
2022-09-12T18:39:46.132Z,75.0
2022-09-12T18:44:52.306Z,75.5
2022-09-12T18:49:58.514Z,76.0
2022-09-12T18:55:04.736Z,76.5
2022-09-12T19:00:12.423Z,77.0
2022-09-12T19:05:16.168Z,78.0
2022-09-12T19:10:21.406Z,78.5
2022-09-12T19:15:27.610Z,79.0
2022-09-12T19:20:33.825Z,79.5
2022-09-12T19:25:40.028Z,80.0
2022-09-12T19:30:46.293Z,80.5
2022-09-12T19:35:52.443Z,81.0
2022-09-12T19:40:58.663Z,81.5
2022-09-12T19:46:04.925Z,82.0
2022-09-12T19:51:11.069Z,82.0
2022-09-12T19:56:17.286Z,82.5
2022-09-12T20:01:23.529Z,83.0
2022-09-12T20:06:29.703Z,83.0
2022-09-12T20:11:35.906Z,83.5
2022-09-12T20:16:42.108Z,83.5
2022-09-12T20:21:48.319Z,84.0
2022-09-12T20:26:54.527Z,84.0
2022-09-12T20:32:00.738Z,84.5
2022-09-12T20:37:06.945Z,84.5
2022-09-12T20:42:13.160Z,85.0
2022-09-12T20:47:19.367Z,85.0
2022-09-12T20:52:25.576Z,85.5
2022-09-12T20:57:30.806Z,86.0
2022-09-12T21:02:37.139Z,86.5
2022-09-12T21:07:42.255Z,87.0
2022-09-12T21:12:48.464Z,87.0
2022-09-12T21:17:54.685Z,87.0
2022-09-12T21:23:00.882Z,87.0
2022-09-12T21:28:07.096Z,87.0
2022-09-12T21:33:12.313Z,87.5
2022-09-12T21:38:18.525Z,88.0
2022-09-12T21:43:24.730Z,88.0
2022-09-12T21:48:30.938Z,88.0
2022-09-12T21:53:37.256Z,88.5
2022-09-12T21:58:43.357Z,89.0
2022-09-12T22:03:49.630Z,89.5
2022-09-12T22:08:55.775Z,89.5
2022-09-12T22:14:01.981Z,90.0
2022-09-12T22:19:08.191Z,90.0
2022-09-12T22:24:14.399Z,90.0
2022-09-12T22:29:20.609Z,90.5
2022-09-12T22:34:26.819Z,90.5
2022-09-12T22:39:33.023Z,90.5
2022-09-12T22:44:39.231Z,90.5
2022-09-12T22:49:45.441Z,90.5
2022-09-12T22:54:50.677Z,91.0
2022-09-12T22:59:56.886Z,91.0
2022-09-12T23:05:03.108Z,91.0
2022-09-12T23:10:09.307Z,91.0
2022-09-12T23:15:15.507Z,91.0
2022-09-12T23:20:21.712Z,91.0
2022-09-12T23:25:27.920Z,91.0
2022-09-12T23:30:34.150Z,91.5
2022-09-12T23:35:40.339Z,91.5
2022-09-12T23:40:46.549Z,91.5
2022-09-12T23:45:52.781Z,91.5
2022-09-12T23:50:58.967Z,91.5
2022-09-12T23:56:05.173Z,92.0
